sensor_id;sensor_type;location;lat;lon;timestamp;P1;durP1;ratioP1;P2;durP2;ratioP2
179;SDS011;78;48.788;9.010;2023-02-28T00:00:13;21.17;;;5.67;;
179;SDS011;78;48.788;9.010;2023-02-28T00:02:40;19.40;;;5.70;;
179;SDS011;78;48.788;9.010;2023-02-28T00:05:07;20.07;;;5.50;;
179;SDS011;78;48.788;9.010;2023-02-28T00:07:33;25.20;;;6.33;;
179;SDS011;78;48.788;9.010;2023-02-28T00:10:00;22.97;;;7.33;;
179;SDS011;78;48.788;9.010;2023-02-28T00:12:26;21.07;;;6.47;;
179;SDS011;78;48.788;9.010;2023-02-28T00:14:53;18.60;;;5.63;;
179;SDS011;78;48.788;9.010;2023-02-28T00:17:19;18.63;;;5.60;;
179;SDS011;78;48.788;9.010;2023-02-28T00:19:47;18.80;;;5.77;;
179;SDS011;78;48.788;9.010;2023-02-28T00:22:14;19.80;;;6.03;;
179;SDS011;78;48.788;9.010;2023-02-28T00:24:41;18.30;;;5.50;;
179;SDS011;78;48.788;9.010;2023-02-28T00:27:07;20.17;;;5.60;;
179;SDS011;78;48.788;9.010;2023-02-28T00:29:33;20.30;;;5.80;;
179;SDS011;78;48.788;9.010;2023-02-28T00:31:59;21.10;;;6.07;;
179;SDS011;78;48.788;9.010;2023-02-28T00:34:26;21.83;;;6.17;;
179;SDS011;78;48.788;9.010;2023-02-28T00:36:52;20.03;;;6.20;;
179;SDS011;78;48.788;9.010;2023-02-28T00:39:18;22.47;;;6.57;;
179;SDS011;78;48.788;9.010;2023-02-28T00:41:45;20.87;;;6.07;;
179;SDS011;78;48.788;9.010;2023-02-28T00:44:11;22.80;;;6.17;;
179;SDS011;78;48.788;9.010;2023-02-28T00:46:37;19.00;;;6.03;;
179;SDS011;78;48.788;9.010;2023-02-28T00:49:04;22.80;;;6.30;;
179;SDS011;78;48.788;9.010;2023-02-28T00:51:30;21.10;;;6.10;;
179;SDS011;78;48.788;9.010;2023-02-28T00:53:56;23.27;;;6.40;;
179;SDS011;78;48.788;9.010;2023-02-28T00:56:23;22.67;;;6.80;;
179;SDS011;78;48.788;9.010;2023-02-28T00:58:48;20.73;;;5.93;;
179;SDS011;78;48.788;9.010;2023-02-28T01:01:14;20.80;;;6.40;;
179;SDS011;78;48.788;9.010;2023-02-28T01:03:40;19.93;;;6.27;;
179;SDS011;78;48.788;9.010;2023-02-28T01:06:07;21.20;;;6.10;;
179;SDS011;78;48.788;9.010;2023-02-28T01:08:33;19.13;;;5.83;;
179;SDS011;78;48.788;9.010;2023-02-28T01:11:06;19.03;;;5.90;;
179;SDS011;78;48.788;9.010;2023-02-28T01:13:33;26.63;;;6.77;;
179;SDS011;78;48.788;9.010;2023-02-28T01:15:59;20.53;;;6.33;;
179;SDS011;78;48.788;9.010;2023-02-28T01:18:26;20.63;;;6.60;;
179;SDS011;78;48.788;9.010;2023-02-28T01:20:52;22.00;;;7.27;;
179;SDS011;78;48.788;9.010;2023-02-28T01:23:19;20.40;;;6.30;;
179;SDS011;78;48.788;9.010;2023-02-28T01:25:48;22.13;;;6.00;;
179;SDS011;78;48.788;9.010;2023-02-28T01:28:14;21.13;;;6.33;;
179;SDS011;78;48.788;9.010;2023-02-28T01:30:40;21.27;;;6.20;;
179;SDS011;78;48.788;9.010;2023-02-28T01:33:06;23.23;;;6.87;;
179;SDS011;78;48.788;9.010;2023-02-28T01:35:34;21.70;;;6.97;;
179;SDS011;78;48.788;9.010;2023-02-28T01:38:00;20.33;;;6.30;;
179;SDS011;78;48.788;9.010;2023-02-28T01:40:27;22.20;;;6.87;;
179;SDS011;78;48.788;9.010;2023-02-28T01:42:54;24.43;;;6.63;;
179;SDS011;78;48.788;9.010;2023-02-28T01:45:28;21.13;;;6.60;;
179;SDS011;78;48.788;9.010;2023-02-28T01:48:04;22.27;;;6.60;;
179;SDS011;78;48.788;9.010;2023-02-28T01:50:33;21.50;;;7.07;;
179;SDS011;78;48.788;9.010;2023-02-28T01:53:02;20.90;;;6.93;;
179;SDS011;78;48.788;9.010;2023-02-28T01:55:30;20.87;;;6.70;;
179;SDS011;78;48.788;9.010;2023-02-28T01:57:58;22.47;;;7.00;;
179;SDS011;78;48.788;9.010;2023-02-28T02:00:26;22.10;;;7.50;;
179;SDS011;78;48.788;9.010;2023-02-28T02:02:54;22.10;;;7.10;;
179;SDS011;78;48.788;9.010;2023-02-28T02:05:22;20.87;;;6.80;;
179;SDS011;78;48.788;9.010;2023-02-28T02:07:50;24.33;;;7.60;;
179;SDS011;78;48.788;9.010;2023-02-28T02:10:21;26.90;;;7.60;;
179;SDS011;78;48.788;9.010;2023-02-28T02:17:51;23.57;;;7.97;;
179;SDS011;78;48.788;9.010;2023-02-28T02:35:39;27.90;;;8.10;;
179;SDS011;78;48.788;9.010;2023-02-28T02:41:08;24.33;;;8.37;;
179;SDS011;78;48.788;9.010;2023-02-28T02:46:52;24.97;;;7.40;;
179;SDS011;78;48.788;9.010;2023-02-28T02:48:59;24.80;;;8.10;;
179;SDS011;78;48.788;9.010;2023-02-28T02:51:28;26.23;;;8.07;;
179;SDS011;78;48.788;9.010;2023-02-28T02:54:08;23.90;;;8.50;;
179;SDS011;78;48.788;9.010;2023-02-28T02:56:34;23.47;;;8.07;;
179;SDS011;78;48.788;9.010;2023-02-28T02:59:07;22.97;;;8.00;;
179;SDS011;78;48.788;9.010;2023-02-28T03:01:35;22.27;;;7.90;;
179;SDS011;78;48.788;9.010;2023-02-28T03:04:04;25.23;;;8.20;;
179;SDS011;78;48.788;9.010;2023-02-28T03:06:32;23.33;;;8.30;;
179;SDS011;78;48.788;9.010;2023-02-28T03:08:59;23.23;;;8.63;;
179;SDS011;78;48.788;9.010;2023-02-28T03:11:26;25.20;;;8.17;;
179;SDS011;78;48.788;9.010;2023-02-28T03:14:16;23.70;;;7.73;;
179;SDS011;78;48.788;9.010;2023-02-28T03:21:46;26.10;;;8.90;;
179;SDS011;78;48.788;9.010;2023-02-28T03:24:17;25.13;;;8.37;;
179;SDS011;78;48.788;9.010;2023-02-28T03:26:45;26.70;;;9.30;;
179;SDS011;78;48.788;9.010;2023-02-28T03:29:14;24.60;;;8.63;;
179;SDS011;78;48.788;9.010;2023-02-28T03:31:48;27.30;;;8.93;;
179;SDS011;78;48.788;9.010;2023-02-28T03:34:22;25.77;;;8.83;;
179;SDS011;78;48.788;9.010;2023-02-28T03:36:57;29.50;;;8.97;;
179;SDS011;78;48.788;9.010;2023-02-28T03:39:30;26.20;;;9.10;;
179;SDS011;78;48.788;9.010;2023-02-28T03:42:14;26.83;;;8.53;;
179;SDS011;78;48.788;9.010;2023-02-28T03:44:42;24.20;;;7.90;;
179;SDS011;78;48.788;9.010;2023-02-28T03:49:36;24.53;;;8.40;;
179;SDS011;78;48.788;9.010;2023-02-28T03:52:09;25.80;;;8.87;;
179;SDS011;78;48.788;9.010;2023-02-28T03:54:42;27.87;;;9.40;;
179;SDS011;78;48.788;9.010;2023-02-28T03:59:37;23.37;;;8.10;;
179;SDS011;78;48.788;9.010;2023-02-28T04:02:04;24.30;;;8.23;;
179;SDS011;78;48.788;9.010;2023-02-28T04:04:31;27.10;;;9.57;;
179;SDS011;78;48.788;9.010;2023-02-28T04:07:01;25.83;;;9.27;;
179;SDS011;78;48.788;9.010;2023-02-28T04:09:27;25.53;;;9.03;;
179;SDS011;78;48.788;9.010;2023-02-28T04:11:54;25.07;;;8.63;;
179;SDS011;78;48.788;9.010;2023-02-28T04:14:24;27.90;;;9.90;;
179;SDS011;78;48.788;9.010;2023-02-28T04:16:50;24.70;;;8.80;;
179;SDS011;78;48.788;9.010;2023-02-28T04:19:17;25.47;;;8.53;;
179;SDS011;78;48.788;9.010;2023-02-28T04:21:45;26.67;;;9.70;;
179;SDS011;78;48.788;9.010;2023-02-28T04:24:15;27.90;;;9.57;;
179;SDS011;78;48.788;9.010;2023-02-28T04:26:42;28.57;;;9.10;;
179;SDS011;78;48.788;9.010;2023-02-28T04:29:09;26.33;;;9.10;;
179;SDS011;78;48.788;9.010;2023-02-28T04:31:35;25.73;;;9.10;;
179;SDS011;78;48.788;9.010;2023-02-28T04:34:02;25.87;;;8.43;;
179;SDS011;78;48.788;9.010;2023-02-28T04:36:28;26.77;;;8.87;;
179;SDS011;78;48.788;9.010;2023-02-28T04:38:55;26.73;;;9.60;;
179;SDS011;78;48.788;9.010;2023-02-28T04:41:21;34.20;;;9.20;;
179;SDS011;78;48.788;9.010;2023-02-28T04:43:50;28.73;;;10.00;;
179;SDS011;78;48.788;9.010;2023-02-28T04:46:17;27.23;;;9.43;;
179;SDS011;78;48.788;9.010;2023-02-28T04:48:43;28.43;;;10.03;;
179;SDS011;78;48.788;9.010;2023-02-28T04:51:10;26.60;;;10.10;;
179;SDS011;78;48.788;9.010;2023-02-28T04:53:38;26.13;;;9.60;;
179;SDS011;78;48.788;9.010;2023-02-28T04:56:05;28.07;;;9.50;;
179;SDS011;78;48.788;9.010;2023-02-28T04:58:31;27.83;;;9.30;;
179;SDS011;78;48.788;9.010;2023-02-28T05:01:04;26.97;;;9.60;;
179;SDS011;78;48.788;9.010;2023-02-28T05:03:38;28.60;;;9.33;;
179;SDS011;78;48.788;9.010;2023-02-28T05:06:07;28.40;;;9.57;;
179;SDS011;78;48.788;9.010;2023-02-28T05:08:33;29.00;;;10.40;;
179;SDS011;78;48.788;9.010;2023-02-28T05:11:00;31.00;;;10.00;;
179;SDS011;78;48.788;9.010;2023-02-28T05:13:26;29.47;;;10.60;;
179;SDS011;78;48.788;9.010;2023-02-28T05:15:52;32.13;;;9.97;;
179;SDS011;78;48.788;9.010;2023-02-28T05:18:20;29.03;;;10.33;;
179;SDS011;78;48.788;9.010;2023-02-28T05:20:46;29.97;;;10.40;;
179;SDS011;78;48.788;9.010;2023-02-28T05:23:12;32.13;;;10.83;;
179;SDS011;78;48.788;9.010;2023-02-28T05:25:39;28.83;;;10.33;;
179;SDS011;78;48.788;9.010;2023-02-28T05:28:05;30.77;;;10.30;;
179;SDS011;78;48.788;9.010;2023-02-28T05:30:31;30.07;;;10.00;;
179;SDS011;78;48.788;9.010;2023-02-28T05:32:57;29.70;;;10.47;;
179;SDS011;78;48.788;9.010;2023-02-28T05:35:24;30.70;;;10.40;;
179;SDS011;78;48.788;9.010;2023-02-28T05:37:51;29.23;;;9.83;;
179;SDS011;78;48.788;9.010;2023-02-28T05:40:17;35.60;;;12.07;;
179;SDS011;78;48.788;9.010;2023-02-28T05:42:45;27.90;;;9.97;;
179;SDS011;78;48.788;9.010;2023-02-28T05:45:12;28.80;;;9.93;;
179;SDS011;78;48.788;9.010;2023-02-28T05:47:38;29.10;;;10.30;;
179;SDS011;78;48.788;9.010;2023-02-28T05:50:05;30.40;;;10.57;;
179;SDS011;78;48.788;9.010;2023-02-28T05:52:31;29.90;;;10.40;;
179;SDS011;78;48.788;9.010;2023-02-28T05:54:57;35.10;;;11.53;;
179;SDS011;78;48.788;9.010;2023-02-28T05:57:24;32.27;;;10.70;;
179;SDS011;78;48.788;9.010;2023-02-28T05:59:50;33.23;;;10.83;;
179;SDS011;78;48.788;9.010;2023-02-28T06:02:16;29.17;;;10.40;;
179;SDS011;78;48.788;9.010;2023-02-28T06:04:43;29.33;;;10.47;;
179;SDS011;78;48.788;9.010;2023-02-28T06:07:10;30.60;;;11.00;;
179;SDS011;78;48.788;9.010;2023-02-28T06:09:36;31.03;;;11.73;;
179;SDS011;78;48.788;9.010;2023-02-28T06:12:03;28.53;;;10.43;;
179;SDS011;78;48.788;9.010;2023-02-28T06:14:30;30.07;;;10.97;;
179;SDS011;78;48.788;9.010;2023-02-28T06:16:57;27.63;;;10.50;;
179;SDS011;78;48.788;9.010;2023-02-28T06:19:23;29.57;;;10.40;;
179;SDS011;78;48.788;9.010;2023-02-28T06:21:50;31.33;;;10.80;;
179;SDS011;78;48.788;9.010;2023-02-28T06:24:23;31.00;;;11.43;;
179;SDS011;78;48.788;9.010;2023-02-28T06:26:49;34.03;;;11.03;;
179;SDS011;78;48.788;9.010;2023-02-28T06:29:16;33.37;;;11.67;;
179;SDS011;78;48.788;9.010;2023-02-28T06:31:43;32.40;;;12.27;;
179;SDS011;78;48.788;9.010;2023-02-28T06:34:09;36.20;;;11.40;;
179;SDS011;78;48.788;9.010;2023-02-28T06:36:37;30.73;;;11.53;;
179;SDS011;78;48.788;9.010;2023-02-28T06:39:03;32.47;;;11.57;;
179;SDS011;78;48.788;9.010;2023-02-28T06:41:29;32.60;;;11.50;;
179;SDS011;78;48.788;9.010;2023-02-28T06:43:55;30.70;;;10.97;;
179;SDS011;78;48.788;9.010;2023-02-28T06:46:22;32.20;;;11.97;;
179;SDS011;78;48.788;9.010;2023-02-28T06:48:48;34.10;;;12.70;;
179;SDS011;78;48.788;9.010;2023-02-28T06:51:15;32.03;;;12.30;;
179;SDS011;78;48.788;9.010;2023-02-28T06:53:41;33.57;;;11.70;;
179;SDS011;78;48.788;9.010;2023-02-28T06:56:08;36.70;;;12.60;;
179;SDS011;78;48.788;9.010;2023-02-28T06:58:35;32.70;;;12.00;;
179;SDS011;78;48.788;9.010;2023-02-28T07:01:02;33.17;;;11.60;;
179;SDS011;78;48.788;9.010;2023-02-28T07:03:29;32.87;;;11.33;;
179;SDS011;78;48.788;9.010;2023-02-28T07:05:55;34.77;;;12.00;;
179;SDS011;78;48.788;9.010;2023-02-28T07:08:24;34.90;;;11.40;;
179;SDS011;78;48.788;9.010;2023-02-28T07:10:52;32.77;;;11.57;;
179;SDS011;78;48.788;9.010;2023-02-28T07:13:18;30.90;;;11.10;;
179;SDS011;78;48.788;9.010;2023-02-28T07:15:44;32.50;;;11.00;;
179;SDS011;78;48.788;9.010;2023-02-28T07:18:18;36.03;;;12.40;;
179;SDS011;78;48.788;9.010;2023-02-28T07:20:44;31.90;;;11.73;;
179;SDS011;78;48.788;9.010;2023-02-28T07:23:10;31.67;;;11.83;;
179;SDS011;78;48.788;9.010;2023-02-28T07:25:36;32.90;;;11.10;;
179;SDS011;78;48.788;9.010;2023-02-28T07:28:02;36.00;;;12.43;;
179;SDS011;78;48.788;9.010;2023-02-28T07:30:28;44.00;;;12.17;;
179;SDS011;78;48.788;9.010;2023-02-28T07:32:54;34.27;;;11.70;;
179;SDS011;78;48.788;9.010;2023-02-28T07:35:21;35.53;;;11.93;;
179;SDS011;78;48.788;9.010;2023-02-28T07:37:46;31.97;;;11.40;;
179;SDS011;78;48.788;9.010;2023-02-28T07:40:13;31.20;;;11.17;;
179;SDS011;78;48.788;9.010;2023-02-28T07:42:39;36.13;;;12.47;;
179;SDS011;78;48.788;9.010;2023-02-28T07:45:06;34.40;;;12.27;;
179;SDS011;78;48.788;9.010;2023-02-28T07:47:32;34.13;;;12.60;;
179;SDS011;78;48.788;9.010;2023-02-28T07:49:58;33.40;;;12.27;;
179;SDS011;78;48.788;9.010;2023-02-28T07:52:24;34.40;;;12.17;;
179;SDS011;78;48.788;9.010;2023-02-28T07:54:50;31.57;;;12.20;;
179;SDS011;78;48.788;9.010;2023-02-28T07:57:16;38.63;;;13.50;;
179;SDS011;78;48.788;9.010;2023-02-28T07:59:42;38.50;;;13.03;;
179;SDS011;78;48.788;9.010;2023-02-28T08:02:15;35.87;;;12.83;;
179;SDS011;78;48.788;9.010;2023-02-28T08:04:42;38.27;;;13.10;;
179;SDS011;78;48.788;9.010;2023-02-28T08:07:08;33.17;;;12.50;;
179;SDS011;78;48.788;9.010;2023-02-28T08:09:38;35.80;;;11.97;;
179;SDS011;78;48.788;9.010;2023-02-28T08:12:04;32.87;;;12.70;;
179;SDS011;78;48.788;9.010;2023-02-28T08:14:30;35.83;;;12.30;;
179;SDS011;78;48.788;9.010;2023-02-28T08:16:56;37.33;;;13.03;;
179;SDS011;78;48.788;9.010;2023-02-28T08:19:22;36.10;;;12.43;;
179;SDS011;78;48.788;9.010;2023-02-28T08:21:48;34.17;;;12.93;;
179;SDS011;78;48.788;9.010;2023-02-28T08:24:14;33.37;;;12.67;;
179;SDS011;78;48.788;9.010;2023-02-28T08:26:40;37.17;;;13.40;;
179;SDS011;78;48.788;9.010;2023-02-28T08:29:06;38.63;;;13.60;;
179;SDS011;78;48.788;9.010;2023-02-28T08:31:32;39.20;;;14.30;;
179;SDS011;78;48.788;9.010;2023-02-28T08:34:08;40.30;;;13.53;;
179;SDS011;78;48.788;9.010;2023-02-28T08:36:34;35.50;;;12.53;;
179;SDS011;78;48.788;9.010;2023-02-28T08:39:00;36.50;;;13.50;;
179;SDS011;78;48.788;9.010;2023-02-28T08:41:26;37.70;;;12.97;;
179;SDS011;78;48.788;9.010;2023-02-28T08:43:52;40.80;;;13.67;;
179;SDS011;78;48.788;9.010;2023-02-28T08:46:18;37.23;;;13.60;;
179;SDS011;78;48.788;9.010;2023-02-28T08:48:44;36.83;;;12.73;;
179;SDS011;78;48.788;9.010;2023-02-28T08:51:11;37.33;;;13.93;;
179;SDS011;78;48.788;9.010;2023-02-28T08:53:38;35.20;;;13.90;;
179;SDS011;78;48.788;9.010;2023-02-28T08:56:06;45.63;;;14.30;;
179;SDS011;78;48.788;9.010;2023-02-28T08:58:32;36.20;;;13.47;;
179;SDS011;78;48.788;9.010;2023-02-28T09:00:59;37.97;;;13.63;;
179;SDS011;78;48.788;9.010;2023-02-28T09:03:25;36.20;;;13.53;;
179;SDS011;78;48.788;9.010;2023-02-28T09:05:59;35.70;;;13.40;;
179;SDS011;78;48.788;9.010;2023-02-28T09:08:26;37.63;;;13.70;;
179;SDS011;78;48.788;9.010;2023-02-28T09:10:52;41.07;;;13.80;;
179;SDS011;78;48.788;9.010;2023-02-28T09:13:20;36.93;;;13.73;;
179;SDS011;78;48.788;9.010;2023-02-28T09:15:46;38.10;;;13.33;;
179;SDS011;78;48.788;9.010;2023-02-28T09:18:12;39.57;;;13.97;;
179;SDS011;78;48.788;9.010;2023-02-28T09:20:39;39.73;;;14.17;;
179;SDS011;78;48.788;9.010;2023-02-28T09:23:06;38.50;;;14.50;;
179;SDS011;78;48.788;9.010;2023-02-28T09:25:32;55.40;;;14.00;;
179;SDS011;78;48.788;9.010;2023-02-28T09:27:58;37.23;;;14.20;;
179;SDS011;78;48.788;9.010;2023-02-28T09:30:24;37.80;;;14.43;;
179;SDS011;78;48.788;9.010;2023-02-28T09:32:50;36.33;;;14.80;;
179;SDS011;78;48.788;9.010;2023-02-28T09:35:26;36.50;;;13.97;;
179;SDS011;78;48.788;9.010;2023-02-28T09:37:52;38.90;;;13.97;;
179;SDS011;78;48.788;9.010;2023-02-28T09:40:22;40.07;;;14.97;;
179;SDS011;78;48.788;9.010;2023-02-28T09:42:50;37.23;;;13.90;;
179;SDS011;78;48.788;9.010;2023-02-28T09:47:53;39.43;;;13.87;;
179;SDS011;78;48.788;9.010;2023-02-28T09:52:51;39.40;;;15.10;;
179;SDS011;78;48.788;9.010;2023-02-28T09:55:20;44.83;;;15.37;;
179;SDS011;78;48.788;9.010;2023-02-28T09:57:48;36.40;;;15.00;;
179;SDS011;78;48.788;9.010;2023-02-28T10:00:52;41.07;;;15.30;;
179;SDS011;78;48.788;9.010;2023-02-28T10:03:21;40.00;;;15.23;;
179;SDS011;78;48.788;9.010;2023-02-28T10:05:51;44.17;;;16.90;;
179;SDS011;78;48.788;9.010;2023-02-28T10:08:27;43.17;;;16.57;;
179;SDS011;78;48.788;9.010;2023-02-28T10:11:06;41.37;;;16.20;;
179;SDS011;78;48.788;9.010;2023-02-28T10:14:15;42.40;;;16.60;;
179;SDS011;78;48.788;9.010;2023-02-28T10:16:31;53.13;;;18.37;;
179;SDS011;78;48.788;9.010;2023-02-28T10:19:05;40.83;;;15.83;;
179;SDS011;78;48.788;9.010;2023-02-28T10:21:56;66.67;;;23.03;;
179;SDS011;78;48.788;9.010;2023-02-28T10:24:23;52.37;;;18.57;;
179;SDS011;78;48.788;9.010;2023-02-28T10:26:52;54.83;;;18.80;;
179;SDS011;78;48.788;9.010;2023-02-28T10:29:19;45.60;;;16.77;;
179;SDS011;78;48.788;9.010;2023-02-28T10:31:46;48.87;;;17.63;;
179;SDS011;78;48.788;9.010;2023-02-28T10:34:12;45.00;;;16.17;;
179;SDS011;78;48.788;9.010;2023-02-28T10:36:39;40.50;;;15.90;;
179;SDS011;78;48.788;9.010;2023-02-28T10:41:51;38.97;;;15.00;;
179;SDS011;78;48.788;9.010;2023-02-28T10:44:20;42.30;;;16.37;;
179;SDS011;78;48.788;9.010;2023-02-28T10:46:46;40.37;;;15.53;;
179;SDS011;78;48.788;9.010;2023-02-28T10:49:15;37.73;;;15.30;;
179;SDS011;78;48.788;9.010;2023-02-28T10:51:42;43.57;;;15.40;;
179;SDS011;78;48.788;9.010;2023-02-28T10:54:15;38.20;;;15.50;;
179;SDS011;78;48.788;9.010;2023-02-28T10:56:42;38.60;;;14.97;;
179;SDS011;78;48.788;9.010;2023-02-28T11:01:43;38.93;;;15.73;;
179;SDS011;78;48.788;9.010;2023-02-28T11:07:16;38.17;;;15.90;;
179;SDS011;78;48.788;9.010;2023-02-28T11:09:45;36.83;;;14.80;;
179;SDS011;78;48.788;9.010;2023-02-28T11:14:49;39.43;;;15.97;;
179;SDS011;78;48.788;9.010;2023-02-28T11:17:20;39.70;;;16.53;;
179;SDS011;78;48.788;9.010;2023-02-28T11:19:48;37.50;;;15.97;;
179;SDS011;78;48.788;9.010;2023-02-28T11:22:19;35.80;;;14.97;;
179;SDS011;78;48.788;9.010;2023-02-28T11:24:46;41.37;;;16.63;;
179;SDS011;78;48.788;9.010;2023-02-28T11:29:51;36.37;;;14.80;;
179;SDS011;78;48.788;9.010;2023-02-28T11:32:20;35.83;;;15.20;;
179;SDS011;78;48.788;9.010;2023-02-28T11:34:59;35.63;;;15.33;;
179;SDS011;78;48.788;9.010;2023-02-28T11:37:27;36.73;;;15.80;;
179;SDS011;78;48.788;9.010;2023-02-28T11:39:54;36.30;;;15.73;;
179;SDS011;78;48.788;9.010;2023-02-28T11:42:28;38.33;;;14.60;;
179;SDS011;78;48.788;9.010;2023-02-28T11:45:00;34.03;;;14.53;;
179;SDS011;78;48.788;9.010;2023-02-28T11:52:50;35.20;;;15.97;;
179;SDS011;78;48.788;9.010;2023-02-28T12:00:44;34.40;;;14.77;;
179;SDS011;78;48.788;9.010;2023-02-28T12:11:05;34.90;;;16.20;;
179;SDS011;78;48.788;9.010;2023-02-28T12:13:42;34.30;;;15.30;;
179;SDS011;78;48.788;9.010;2023-02-28T12:28:47;42.47;;;18.60;;
179;SDS011;78;48.788;9.010;2023-02-28T12:31:19;34.70;;;14.60;;
179;SDS011;78;48.788;9.010;2023-02-28T12:33:53;34.83;;;15.30;;
179;SDS011;78;48.788;9.010;2023-02-28T12:36:22;32.27;;;14.77;;
179;SDS011;78;48.788;9.010;2023-02-28T12:39:01;33.67;;;15.03;;
179;SDS011;78;48.788;9.010;2023-02-28T12:44:17;32.87;;;15.30;;
179;SDS011;78;48.788;9.010;2023-02-28T12:46:48;35.40;;;15.50;;
179;SDS011;78;48.788;9.010;2023-02-28T12:49:19;33.97;;;14.93;;
179;SDS011;78;48.788;9.010;2023-02-28T12:51:47;35.43;;;16.00;;
179;SDS011;78;48.788;9.010;2023-02-28T12:59:50;34.37;;;15.07;;
179;SDS011;78;48.788;9.010;2023-02-28T13:09:51;37.80;;;15.53;;
179;SDS011;78;48.788;9.010;2023-02-28T13:12:18;40.10;;;15.93;;
179;SDS011;78;48.788;9.010;2023-02-28T13:14:45;35.83;;;16.13;;
179;SDS011;78;48.788;9.010;2023-02-28T13:17:17;32.87;;;14.13;;
179;SDS011;78;48.788;9.010;2023-02-28T13:24:46;32.80;;;14.30;;
179;SDS011;78;48.788;9.010;2023-02-28T13:29:42;33.90;;;14.73;;
179;SDS011;78;48.788;9.010;2023-02-28T13:34:35;35.03;;;15.17;;
179;SDS011;78;48.788;9.010;2023-02-28T13:47:44;32.77;;;14.20;;
179;SDS011;78;48.788;9.010;2023-02-28T13:55:31;36.30;;;14.50;;
179;SDS011;78;48.788;9.010;2023-02-28T14:00:40;38.33;;;15.17;;
179;SDS011;78;48.788;9.010;2023-02-28T14:03:18;34.50;;;15.13;;
179;SDS011;78;48.788;9.010;2023-02-28T14:05:44;32.67;;;14.23;;
179;SDS011;78;48.788;9.010;2023-02-28T14:08:15;36.47;;;15.30;;
179;SDS011;78;48.788;9.010;2023-02-28T14:10:46;37.30;;;14.10;;
179;SDS011;78;48.788;9.010;2023-02-28T14:15:57;32.83;;;13.77;;
179;SDS011;78;48.788;9.010;2023-02-28T14:36:38;31.80;;;13.93;;
179;SDS011;78;48.788;9.010;2023-02-28T14:39:14;32.10;;;14.27;;
179;SDS011;78;48.788;9.010;2023-02-28T14:41:43;35.47;;;13.70;;
179;SDS011;78;48.788;9.010;2023-02-28T14:44:14;31.87;;;13.57;;
179;SDS011;78;48.788;9.010;2023-02-28T14:46:41;32.80;;;13.77;;
179;SDS011;78;48.788;9.010;2023-02-28T14:49:12;34.50;;;13.17;;
179;SDS011;78;48.788;9.010;2023-02-28T14:51:38;38.20;;;14.20;;
179;SDS011;78;48.788;9.010;2023-02-28T14:54:04;32.20;;;13.90;;
179;SDS011;78;48.788;9.010;2023-02-28T14:56:35;33.33;;;14.10;;
179;SDS011;78;48.788;9.010;2023-02-28T14:59:01;31.60;;;13.80;;
179;SDS011;78;48.788;9.010;2023-02-28T15:01:27;37.83;;;14.13;;
179;SDS011;78;48.788;9.010;2023-02-28T15:04:04;38.73;;;14.40;;
179;SDS011;78;48.788;9.010;2023-02-28T15:06:32;32.70;;;14.17;;
179;SDS011;78;48.788;9.010;2023-02-28T15:11:54;37.03;;;15.20;;
179;SDS011;78;48.788;9.010;2023-02-28T15:14:20;35.73;;;15.33;;
179;SDS011;78;48.788;9.010;2023-02-28T15:16:49;35.00;;;14.03;;
179;SDS011;78;48.788;9.010;2023-02-28T15:19:19;32.93;;;14.47;;
179;SDS011;78;48.788;9.010;2023-02-28T15:21:48;36.33;;;14.80;;
179;SDS011;78;48.788;9.010;2023-02-28T15:26:42;34.00;;;13.80;;
179;SDS011;78;48.788;9.010;2023-02-28T15:29:15;36.90;;;14.23;;
179;SDS011;78;48.788;9.010;2023-02-28T15:31:43;38.53;;;14.20;;
179;SDS011;78;48.788;9.010;2023-02-28T15:34:25;31.97;;;13.37;;
179;SDS011;78;48.788;9.010;2023-02-28T15:36:52;35.70;;;14.60;;
179;SDS011;78;48.788;9.010;2023-02-28T15:39:20;33.93;;;14.03;;
179;SDS011;78;48.788;9.010;2023-02-28T15:41:46;33.30;;;14.00;;
179;SDS011;78;48.788;9.010;2023-02-28T15:44:17;39.70;;;14.87;;
179;SDS011;78;48.788;9.010;2023-02-28T15:46:45;37.30;;;15.23;;
179;SDS011;78;48.788;9.010;2023-02-28T15:49:19;34.53;;;15.23;;
179;SDS011;78;48.788;9.010;2023-02-28T15:51:47;34.57;;;14.40;;
179;SDS011;78;48.788;9.010;2023-02-28T15:54:15;34.73;;;14.73;;
179;SDS011;78;48.788;9.010;2023-02-28T15:56:43;34.83;;;14.00;;
179;SDS011;78;48.788;9.010;2023-02-28T15:59:29;40.30;;;16.53;;
179;SDS011;78;48.788;9.010;2023-02-28T16:07:25;37.90;;;16.03;;
179;SDS011;78;48.788;9.010;2023-02-28T16:09:52;36.20;;;16.20;;
179;SDS011;78;48.788;9.010;2023-02-28T16:12:19;38.77;;;16.23;;
179;SDS011;78;48.788;9.010;2023-02-28T16:14:46;36.63;;;15.80;;
179;SDS011;78;48.788;9.010;2023-02-28T16:17:16;40.50;;;17.07;;
179;SDS011;78;48.788;9.010;2023-02-28T16:19:43;37.37;;;15.80;;
179;SDS011;78;48.788;9.010;2023-02-28T16:22:09;37.20;;;15.40;;
179;SDS011;78;48.788;9.010;2023-02-28T16:24:35;38.70;;;16.70;;
179;SDS011;78;48.788;9.010;2023-02-28T16:27:03;39.03;;;15.13;;
179;SDS011;78;48.788;9.010;2023-02-28T16:29:30;38.53;;;15.80;;
179;SDS011;78;48.788;9.010;2023-02-28T16:31:56;39.07;;;15.70;;
179;SDS011;78;48.788;9.010;2023-02-28T16:34:22;40.00;;;15.97;;
179;SDS011;78;48.788;9.010;2023-02-28T16:36:48;40.07;;;16.77;;
179;SDS011;78;48.788;9.010;2023-02-28T16:39:15;36.83;;;15.30;;
179;SDS011;78;48.788;9.010;2023-02-28T16:41:44;37.70;;;15.10;;
179;SDS011;78;48.788;9.010;2023-02-28T16:44:12;38.90;;;16.60;;
179;SDS011;78;48.788;9.010;2023-02-28T16:46:39;41.10;;;16.30;;
179;SDS011;78;48.788;9.010;2023-02-28T16:49:08;38.57;;;14.97;;
179;SDS011;78;48.788;9.010;2023-02-28T16:51:36;40.30;;;16.23;;
179;SDS011;78;48.788;9.010;2023-02-28T16:54:01;39.10;;;16.03;;
179;SDS011;78;48.788;9.010;2023-02-28T16:56:27;39.77;;;16.37;;
179;SDS011;78;48.788;9.010;2023-02-28T16:58:55;42.50;;;16.40;;
179;SDS011;78;48.788;9.010;2023-02-28T17:01:22;40.77;;;17.33;;
179;SDS011;78;48.788;9.010;2023-02-28T17:03:48;40.13;;;16.60;;
179;SDS011;78;48.788;9.010;2023-02-28T17:06:19;39.50;;;16.90;;
179;SDS011;78;48.788;9.010;2023-02-28T17:08:46;37.57;;;15.53;;
179;SDS011;78;48.788;9.010;2023-02-28T17:11:12;43.50;;;17.97;;
179;SDS011;78;48.788;9.010;2023-02-28T17:13:38;42.80;;;17.07;;
179;SDS011;78;48.788;9.010;2023-02-28T17:16:04;41.97;;;16.27;;
179;SDS011;78;48.788;9.010;2023-02-28T17:18:30;44.77;;;17.47;;
179;SDS011;78;48.788;9.010;2023-02-28T17:20:59;44.30;;;17.47;;
179;SDS011;78;48.788;9.010;2023-02-28T17:23:25;43.27;;;17.33;;
179;SDS011;78;48.788;9.010;2023-02-28T17:25:51;46.53;;;18.40;;
179;SDS011;78;48.788;9.010;2023-02-28T17:28:20;43.70;;;17.97;;
179;SDS011;78;48.788;9.010;2023-02-28T17:30:47;49.30;;;19.00;;
179;SDS011;78;48.788;9.010;2023-02-28T17:33:13;43.80;;;17.37;;
179;SDS011;78;48.788;9.010;2023-02-28T17:35:39;48.40;;;19.20;;
179;SDS011;78;48.788;9.010;2023-02-28T17:38:09;45.93;;;18.70;;
179;SDS011;78;48.788;9.010;2023-02-28T17:40:39;41.80;;;17.63;;
179;SDS011;78;48.788;9.010;2023-02-28T17:43:05;42.87;;;17.40;;
179;SDS011;78;48.788;9.010;2023-02-28T17:45:31;45.70;;;17.63;;
179;SDS011;78;48.788;9.010;2023-02-28T17:47:59;46.43;;;17.97;;
179;SDS011;78;48.788;9.010;2023-02-28T17:50:26;45.63;;;17.23;;
179;SDS011;78;48.788;9.010;2023-02-28T17:52:52;46.70;;;18.50;;
179;SDS011;78;48.788;9.010;2023-02-28T17:55:18;49.80;;;19.20;;
179;SDS011;78;48.788;9.010;2023-02-28T17:57:44;46.70;;;17.50;;
179;SDS011;78;48.788;9.010;2023-02-28T18:00:11;44.40;;;17.63;;
179;SDS011;78;48.788;9.010;2023-02-28T18:02:38;45.57;;;18.23;;
179;SDS011;78;48.788;9.010;2023-02-28T18:05:06;47.63;;;18.93;;
179;SDS011;78;48.788;9.010;2023-02-28T18:07:32;51.80;;;20.27;;
179;SDS011;78;48.788;9.010;2023-02-28T18:09:58;46.47;;;18.90;;
179;SDS011;78;48.788;9.010;2023-02-28T18:12:24;50.60;;;19.40;;
179;SDS011;78;48.788;9.010;2023-02-28T18:14:50;50.30;;;20.60;;
179;SDS011;78;48.788;9.010;2023-02-28T18:17:16;51.13;;;19.73;;
179;SDS011;78;48.788;9.010;2023-02-28T18:19:42;54.63;;;20.73;;
179;SDS011;78;48.788;9.010;2023-02-28T18:22:08;50.37;;;20.97;;